Byram, Mississippi
Current Conditions -  °F | °C
As of 9:35 AM on Sunday 21 Dec 2014 (Local Time) from KJVW Reporting Station
Clear Clear  
Wind Chill: 46°   Ceiling: Unl
Heat Index: 48°   Visibility: 9mi
Dew Point: 45°   Wind: 5mph
Humidity: 87%   Direction: 90°E
Pressure: 30.16"   Gusts: NA
Location:  32.35°N, 90.4612°W
Report Text: KJVW 211535Z AUTO 09004KT 9SM CLR 09/07 A3016 RMK AO2
Loading
Personal Weather Stations






























Interactive Weather Map New forecast layout! Learn more

10-Day Weather Forecast

Advertisements
Track Severe Weather on mobile